createdAt,value
2023-04-23T00:01:19.506Z,11.41
2023-04-23T00:03:46.985Z,11.93
2023-04-23T00:06:14.721Z,11.74
2023-04-23T00:08:42.239Z,11.88
2023-04-23T00:11:10.681Z,11.85
2023-04-23T00:13:38.108Z,11.83
2023-04-23T00:16:05.934Z,11.55
2023-04-23T00:18:32.892Z,12.03
2023-04-23T00:20:59.879Z,11.78
2023-04-23T00:23:26.985Z,11.80
2023-04-23T00:25:54.143Z,11.67
2023-04-23T00:28:22.374Z,11.71
2023-04-23T00:30:49.462Z,11.59
2023-04-23T00:33:16.438Z,11.68
2023-04-23T00:35:43.527Z,11.59
2023-04-23T00:38:10.514Z,11.76
2023-04-23T00:40:37.699Z,11.83
2023-04-23T00:43:05.069Z,11.93
2023-04-23T00:45:32.120Z,11.90
2023-04-23T00:47:59.667Z,11.81
2023-04-23T00:50:26.792Z,11.76
2023-04-23T00:52:53.755Z,11.67
2023-04-23T00:55:21.522Z,11.71
2023-04-23T00:57:49.004Z,11.49
2023-04-23T01:00:16.309Z,11.58
2023-04-23T01:02:44.639Z,11.71
2023-04-23T01:05:12.323Z,11.60
2023-04-23T01:07:39.493Z,11.68
2023-04-23T01:10:07.299Z,11.70
2023-04-23T01:12:35.018Z,11.86
2023-04-23T01:15:02.950Z,11.66
2023-04-23T01:17:30.162Z,11.48
2023-04-23T01:19:57.235Z,11.58
2023-04-23T01:22:24.728Z,11.40
2023-04-23T01:24:52.463Z,11.19
2023-04-23T01:27:20.427Z,11.27
2023-04-23T01:29:48.264Z,11.26
2023-04-23T01:32:16.045Z,11.19
2023-04-23T01:34:43.757Z,11.13
2023-04-23T01:37:11.624Z,11.16
2023-04-23T01:39:38.576Z,11.07
2023-04-23T01:42:07.462Z,10.97
2023-04-23T01:44:34.748Z,10.88
2023-04-23T01:47:01.637Z,11.11
2023-04-23T01:49:28.614Z,10.18
2023-04-23T01:51:55.601Z,10.64
2023-04-23T01:54:22.582Z,10.37
2023-04-23T01:56:49.784Z,10.71
2023-04-23T01:59:16.713Z,10.85
2023-04-23T02:01:47.739Z,10.97
2023-04-23T02:04:16.085Z,10.95
2023-04-23T02:06:46.182Z,10.93
2023-04-23T02:09:13.479Z,10.90
2023-04-23T02:11:40.726Z,10.45
2023-04-23T02:14:08.769Z,10.58
2023-04-23T02:16:36.738Z,10.65
2023-04-23T02:19:04.127Z,10.64
2023-04-23T02:21:31.754Z,10.62
2023-04-23T02:23:58.688Z,10.34
2023-04-23T02:26:25.686Z,10.35
2023-04-23T02:28:52.697Z,10.28
2023-04-23T02:31:21.082Z,9.68
2023-04-23T02:33:48.144Z,9.52
2023-04-23T02:36:16.364Z,9.46
2023-04-23T02:38:45.065Z,9.04
2023-04-23T02:41:12.568Z,9.64
2023-04-23T02:43:39.494Z,9.88
2023-04-23T02:46:09.695Z,10.05
2023-04-23T02:48:41.284Z,9.67
2023-04-23T02:51:11.167Z,9.98
2023-04-23T02:53:38.216Z,9.94
2023-04-23T02:56:05.701Z,10.07
2023-04-23T02:58:32.655Z,10.24
2023-04-23T03:01:00.293Z,10.30
2023-04-23T03:03:32.160Z,10.29
2023-04-23T03:06:01.045Z,10.29
2023-04-23T03:08:28.686Z,10.43
2023-04-23T03:10:55.747Z,10.27
2023-04-23T03:13:22.654Z,10.32
2023-04-23T03:15:56.009Z,9.91
2023-04-23T03:18:22.938Z,10.36
2023-04-23T03:20:49.861Z,9.73
2023-04-23T03:23:16.946Z,10.18
2023-04-23T03:25:43.885Z,10.34
2023-04-23T03:28:10.824Z,10.27
2023-04-23T03:30:37.805Z,10.15
2023-04-23T03:33:04.866Z,10.23
2023-04-23T03:35:31.827Z,10.04
2023-04-23T03:37:58.808Z,10.06
2023-04-23T03:40:25.904Z,9.97
2023-04-23T03:42:52.923Z,10.12
2023-04-23T03:45:19.857Z,10.16
2023-04-23T03:47:46.760Z,10.09
2023-04-23T03:50:13.775Z,10.16
2023-04-23T03:52:40.892Z,10.19
2023-04-23T03:55:08.340Z,9.93
2023-04-23T03:57:36.478Z,10.14
2023-04-23T04:00:05.189Z,10.03
2023-04-23T04:02:32.552Z,10.12
2023-04-23T04:04:59.630Z,10.22
2023-04-23T04:07:27.304Z,9.67
2023-04-23T04:09:54.197Z,10.03
2023-04-23T04:12:21.090Z,9.98
2023-04-23T04:14:48.059Z,9.67
2023-04-23T04:17:16.354Z,9.43
2023-04-23T04:19:43.711Z,9.39
2023-04-23T04:22:11.191Z,10.18
2023-04-23T04:24:38.329Z,10.15
2023-04-23T04:27:06.292Z,10.09
2023-04-23T04:29:33.721Z,10.00
2023-04-23T04:32:01.740Z,9.82
2023-04-23T04:34:29.129Z,9.59
2023-04-23T04:36:56.110Z,9.85
2023-04-23T04:39:23.059Z,9.74
2023-04-23T04:41:50.177Z,10.00
2023-04-23T04:44:17.613Z,10.01
2023-04-23T04:46:45.253Z,10.05
2023-04-23T04:49:13.115Z,10.26
2023-04-23T04:51:41.525Z,10.73
2023-04-23T04:54:08.734Z,11.24
2023-04-23T04:56:35.707Z,10.50
2023-04-23T04:59:03.293Z,10.43
2023-04-23T05:01:31.252Z,10.78
2023-04-23T05:03:58.663Z,11.57
2023-04-23T05:06:25.936Z,12.30
2023-04-23T05:08:52.920Z,13.14
2023-04-23T05:11:21.210Z,14.03
2023-04-23T05:13:48.945Z,14.64
2023-04-23T05:16:15.984Z,15.10
2023-04-23T05:18:43.445Z,15.34
2023-04-23T05:21:10.590Z,15.73
2023-04-23T05:23:37.634Z,16.09
2023-04-23T05:26:04.918Z,16.33
2023-04-23T05:28:31.971Z,17.23
2023-04-23T05:30:59.256Z,17.89
2023-04-23T05:33:30.648Z,19.41
2023-04-23T05:36:00.341Z,20.85
2023-04-23T05:38:27.474Z,21.72
2023-04-23T05:40:54.401Z,22.03
2023-04-23T05:43:21.337Z,22.19
2023-04-23T05:45:48.423Z,22.24
2023-04-23T05:48:15.368Z,22.29
2023-04-23T05:50:42.407Z,22.63
2023-04-23T05:53:09.455Z,23.26
2023-04-23T05:55:36.476Z,24.21
2023-04-23T05:58:03.442Z,24.41
2023-04-23T06:00:30.753Z,24.16
2023-04-23T06:02:57.886Z,23.86
2023-04-23T06:05:25.041Z,24.22
2023-04-23T06:07:52.646Z,25.13
2023-04-23T06:10:19.676Z,24.90
2023-04-23T06:12:46.604Z,25.20
2023-04-23T06:15:13.573Z,25.54
2023-04-23T06:17:41.389Z,26.37
2023-04-23T06:20:10.945Z,26.68
2023-04-23T06:22:37.771Z,26.69
2023-04-23T06:25:05.786Z,26.93
2023-04-23T06:27:33.998Z,26.90
2023-04-23T06:30:01.037Z,26.21
2023-04-23T06:32:28.048Z,26.12
2023-04-23T06:35:01.472Z,26.95
2023-04-23T06:37:31.069Z,27.15
2023-04-23T06:39:59.548Z,26.98
2023-04-23T06:42:26.573Z,27.28
2023-04-23T06:44:53.615Z,27.27
2023-04-23T06:47:20.658Z,27.24
2023-04-23T06:49:47.571Z,27.00
2023-04-23T06:52:14.594Z,26.00
2023-04-23T06:54:41.779Z,26.53
2023-04-23T06:57:08.980Z,26.98
2023-04-23T06:59:35.973Z,27.59
2023-04-23T07:02:02.904Z,27.78
2023-04-23T07:04:30.206Z,28.21
2023-04-23T07:06:57.558Z,28.72
2023-04-23T07:09:24.583Z,29.03
2023-04-23T07:11:51.606Z,29.15
2023-04-23T07:14:18.625Z,29.37
2023-04-23T07:16:45.684Z,29.44
2023-04-23T07:19:12.620Z,29.76
2023-04-23T07:21:39.513Z,30.10
2023-04-23T07:24:09.732Z,29.74
2023-04-23T07:26:37.244Z,29.77
2023-04-23T07:29:06.910Z,29.79
2023-04-23T07:31:34.465Z,29.94
2023-04-23T07:34:01.594Z,29.91
2023-04-23T07:36:28.906Z,30.15
2023-04-23T07:38:55.956Z,30.25
2023-04-23T07:41:23.064Z,30.24
2023-04-23T07:43:50.266Z,29.51
2023-04-23T07:46:17.462Z,28.93
2023-04-23T07:48:44.601Z,28.30
2023-04-23T07:51:11.668Z,28.41
2023-04-23T07:53:38.778Z,27.77
2023-04-23T07:56:05.883Z,28.20
2023-04-23T07:58:33.560Z,27.85
2023-04-23T08:01:00.524Z,27.10
2023-04-23T08:03:28.919Z,25.41
2023-04-23T08:05:57.089Z,24.95
2023-04-23T08:08:24.045Z,25.54
2023-04-23T08:10:51.023Z,26.32
2023-04-23T08:13:18.061Z,27.05
2023-04-23T08:15:45.041Z,26.85
2023-04-23T08:18:12.124Z,27.69
2023-04-23T08:20:39.067Z,28.30
2023-04-23T08:23:06.481Z,28.79
2023-04-23T08:25:33.630Z,28.32
2023-04-23T08:28:00.660Z,28.28
2023-04-23T08:30:27.582Z,27.88
2023-04-23T08:32:54.575Z,28.37
2023-04-23T08:35:22.445Z,28.52
2023-04-23T08:37:49.383Z,28.31
2023-04-23T08:40:17.279Z,28.76
2023-04-23T08:42:51.364Z,28.53
2023-04-23T08:45:19.507Z,27.83
2023-04-23T08:47:46.588Z,28.47
2023-04-23T08:50:17.938Z,29.34
2023-04-23T08:52:52.902Z,29.72
2023-04-23T08:55:21.457Z,30.14
2023-04-23T08:57:49.891Z,30.62
2023-04-23T09:00:19.536Z,30.79
2023-04-23T09:02:48.673Z,31.07
2023-04-23T09:05:15.922Z,31.52
2023-04-23T09:07:43.388Z,29.50
2023-04-23T09:10:13.694Z,27.37
2023-04-23T09:12:43.681Z,28.06
2023-04-23T09:15:12.150Z,26.45
2023-04-23T09:17:41.375Z,26.88
2023-04-23T09:20:12.416Z,25.95
2023-04-23T09:22:51.018Z,26.04
2023-04-23T09:25:20.942Z,26.89
2023-04-23T09:27:49.732Z,26.61
2023-04-23T09:30:17.586Z,27.74
2023-04-23T09:32:49.748Z,28.51
2023-04-23T09:35:20.280Z,28.82
2023-04-23T09:37:53.207Z,28.38
2023-04-23T09:40:22.838Z,25.91
2023-04-23T09:42:54.816Z,25.71
2023-04-23T09:45:22.106Z,26.13
2023-04-23T09:47:54.924Z,25.60
2023-04-23T09:50:39.577Z,26.80
2023-04-23T09:53:08.385Z,26.77
2023-04-23T09:55:39.185Z,26.57
2023-04-23T09:58:15.736Z,27.18
2023-04-23T10:00:43.634Z,26.74
2023-04-23T10:03:12.399Z,25.87
2023-04-23T10:08:14.682Z,26.56
2023-04-23T10:10:54.960Z,25.81
2023-04-23T10:13:28.386Z,26.56
2023-04-23T10:15:59.073Z,26.21
2023-04-23T10:18:33.241Z,26.04
2023-04-23T10:21:02.926Z,25.88
2023-04-23T10:23:33.493Z,25.96
2023-04-23T10:26:01.787Z,26.89
2023-04-23T10:28:32.232Z,27.38
2023-04-23T10:31:00.045Z,26.37
2023-04-23T10:33:31.893Z,25.31
2023-04-23T10:36:00.753Z,25.52
2023-04-23T10:38:28.575Z,26.55
2023-04-23T10:40:59.047Z,25.67
2023-04-23T10:43:26.521Z,26.60
2023-04-23T10:45:54.092Z,27.10
2023-04-23T10:48:21.798Z,27.11
2023-04-23T10:51:17.577Z,26.96
2023-04-23T10:53:46.133Z,26.81
2023-04-23T10:56:13.049Z,25.46
2023-04-23T10:58:52.461Z,26.40
2023-04-23T11:01:20.890Z,27.09
2023-04-23T11:03:48.853Z,28.19
2023-04-23T11:06:40.030Z,29.04
2023-04-23T11:09:29.855Z,29.78
2023-04-23T11:11:59.942Z,30.32
2023-04-23T11:14:50.617Z,31.17
2023-04-23T11:17:19.640Z,30.62
2023-04-23T11:20:07.236Z,30.51
2023-04-23T11:22:43.925Z,29.86
2023-04-23T11:25:12.876Z,28.84
2023-04-23T11:27:44.712Z,28.39
2023-04-23T11:30:27.224Z,27.53
2023-04-23T11:32:56.851Z,27.10
2023-04-23T11:35:29.689Z,26.48
2023-04-23T11:37:57.223Z,25.06
2023-04-23T11:40:24.537Z,25.52
2023-04-23T11:42:55.200Z,24.83
2023-04-23T11:45:29.565Z,25.05
2023-04-23T11:48:01.223Z,26.88
2023-04-23T11:50:33.606Z,27.18
2023-04-23T11:53:09.179Z,27.27
2023-04-23T11:55:36.697Z,28.12
2023-04-23T11:58:04.109Z,29.19
2023-04-23T12:00:31.018Z,27.19
2023-04-23T12:03:01.559Z,27.25
2023-04-23T12:05:34.032Z,26.00
2023-04-23T12:08:20.598Z,25.61
2023-04-23T12:10:55.069Z,25.52
2023-04-23T12:13:24.397Z,25.99
2023-04-23T12:15:54.358Z,25.61
2023-04-23T12:18:21.349Z,26.07
2023-04-23T12:20:48.345Z,26.06
2023-04-23T12:23:15.497Z,25.80
2023-04-23T12:25:42.696Z,26.76
2023-04-23T12:28:09.630Z,26.48
2023-04-23T12:30:44.208Z,27.04
2023-04-23T12:33:12.279Z,26.67
2023-04-23T12:35:51.887Z,25.02
2023-04-23T12:38:24.013Z,25.59
2023-04-23T12:40:52.347Z,26.78
2023-04-23T12:43:19.334Z,27.00
2023-04-23T12:45:46.277Z,27.69
2023-04-23T12:48:13.808Z,26.32
2023-04-23T12:50:41.319Z,26.71
2023-04-23T12:53:08.412Z,26.18
2023-04-23T12:55:35.374Z,25.96
2023-04-23T12:58:02.305Z,26.32
2023-04-23T13:00:29.344Z,26.34
2023-04-23T13:02:57.038Z,26.19
2023-04-23T13:05:24.382Z,26.19
2023-04-23T13:07:51.452Z,26.71
2023-04-23T13:10:18.404Z,26.02
2023-04-23T13:12:45.579Z,26.26
2023-04-23T13:15:15.440Z,27.09
2023-04-23T13:17:42.464Z,26.40
2023-04-23T13:20:09.797Z,26.46
2023-04-23T13:22:36.721Z,26.26
2023-04-23T13:25:04.406Z,26.86
2023-04-23T13:27:31.333Z,26.05
2023-04-23T13:29:58.978Z,26.11
2023-04-23T13:32:27.596Z,26.70
2023-04-23T13:34:54.602Z,25.90
2023-04-23T13:37:21.570Z,25.42
2023-04-23T13:39:49.150Z,25.42
2023-04-23T13:42:16.217Z,25.04
2023-04-23T13:44:43.121Z,25.67
2023-04-23T13:47:10.030Z,25.70
2023-04-23T13:49:37.078Z,25.33
2023-04-23T13:52:07.149Z,24.91
2023-04-23T13:54:35.911Z,24.76
2023-04-23T13:57:03.312Z,25.43
2023-04-23T13:59:30.322Z,25.89
2023-04-23T14:01:57.232Z,26.75
2023-04-23T14:04:24.529Z,26.90
2023-04-23T14:06:51.598Z,26.18
2023-04-23T14:09:19.220Z,25.95
2023-04-23T14:11:46.220Z,25.46
2023-04-23T14:14:13.210Z,25.15
2023-04-23T14:16:40.088Z,25.68
2023-04-23T14:19:07.257Z,25.52
2023-04-23T14:21:36.407Z,25.58
2023-04-23T14:24:10.161Z,25.85
2023-04-23T14:26:47.856Z,25.95
2023-04-23T14:29:38.905Z,26.44
2023-04-23T14:32:06.711Z,26.17
2023-04-23T14:34:36.830Z,25.61
2023-04-23T14:37:04.223Z,25.52
2023-04-23T14:39:31.739Z,25.80
2023-04-23T14:41:58.685Z,25.21
2023-04-23T14:44:27.130Z,24.58
2023-04-23T14:46:54.169Z,24.82
2023-04-23T14:49:21.800Z,24.76
2023-04-23T14:51:55.995Z,24.93
2023-04-23T14:54:23.102Z,25.25
2023-04-23T14:56:51.256Z,25.25
2023-04-23T14:59:18.156Z,24.73
2023-04-23T15:01:45.396Z,24.74
2023-04-23T15:04:12.527Z,25.03
2023-04-23T15:06:40.985Z,25.25
2023-04-23T15:09:07.975Z,25.13
2023-04-23T15:11:35.137Z,25.07
2023-04-23T15:14:26.196Z,25.21
2023-04-23T15:16:53.226Z,24.66
2023-04-23T15:19:20.274Z,24.79
2023-04-23T15:21:48.340Z,24.80
2023-04-23T15:24:16.460Z,24.85
2023-04-23T15:26:44.368Z,23.82
2023-04-23T15:29:11.679Z,24.29
2023-04-23T15:31:38.966Z,24.40
2023-04-23T15:34:09.445Z,24.45
2023-04-23T15:36:38.116Z,24.55
2023-04-23T15:39:05.342Z,24.20
2023-04-23T15:41:32.323Z,24.11
2023-04-23T15:44:00.561Z,24.07
2023-04-23T15:46:27.478Z,24.35
2023-04-23T15:48:54.399Z,24.39
2023-04-23T15:51:21.455Z,23.99
2023-04-23T15:53:48.394Z,23.75
2023-04-23T15:56:15.411Z,24.50
2023-04-23T15:58:42.338Z,23.91
2023-04-23T16:01:10.263Z,24.19
2023-04-23T16:03:37.917Z,23.68
2023-04-23T16:06:05.367Z,23.68
2023-04-23T16:08:32.958Z,23.81
2023-04-23T16:10:59.995Z,23.57
2023-04-23T16:13:29.103Z,23.50
2023-04-23T16:15:56.091Z,23.37
2023-04-23T16:18:23.059Z,23.13
2023-04-23T16:20:50.170Z,23.32
2023-04-23T16:23:17.156Z,23.42
2023-04-23T16:25:44.941Z,23.40
2023-04-23T16:28:13.963Z,22.79
2023-04-23T16:30:41.081Z,23.12
2023-04-23T16:33:09.753Z,22.66
2023-04-23T16:35:36.921Z,22.80
2023-04-23T16:38:03.870Z,22.91
2023-04-23T16:40:30.833Z,23.18
2023-04-23T16:42:57.799Z,22.52
2023-04-23T16:45:24.755Z,22.64
2023-04-23T16:47:51.767Z,22.79
2023-04-23T16:50:18.908Z,22.96
2023-04-23T16:52:45.895Z,22.76
2023-04-23T16:55:12.851Z,22.81
2023-04-23T16:57:39.836Z,22.96
2023-04-23T17:00:08.131Z,22.87
2023-04-23T17:02:35.559Z,22.52
2023-04-23T17:05:02.601Z,22.50
2023-04-23T17:07:29.713Z,22.51
2023-04-23T17:09:57.023Z,22.67
2023-04-23T17:12:23.945Z,22.60
2023-04-23T17:14:51.037Z,22.83
2023-04-23T17:17:18.008Z,22.11
2023-04-23T17:19:45.987Z,22.62
2023-04-23T17:22:12.972Z,22.95
2023-04-23T17:24:40.611Z,23.24
2023-04-23T17:27:07.959Z,23.48
2023-04-23T17:29:34.876Z,23.68
2023-04-23T17:32:03.063Z,23.93
2023-04-23T17:34:30.217Z,24.11
2023-04-23T17:36:57.229Z,24.16
2023-04-23T17:39:25.740Z,24.00
2023-04-23T17:41:52.994Z,24.06
2023-04-23T17:44:19.970Z,23.54
2023-04-23T17:46:47.017Z,23.64
2023-04-23T17:49:14.004Z,22.69
2023-04-23T17:51:41.072Z,22.80
2023-04-23T17:54:08.032Z,22.51
2023-04-23T17:56:34.961Z,22.54
2023-04-23T17:59:02.160Z,22.51
2023-04-23T18:01:29.277Z,22.49
2023-04-23T18:03:56.426Z,22.14
2023-04-23T18:06:23.825Z,22.02
2023-04-23T18:08:50.857Z,21.75
2023-04-23T18:11:18.743Z,21.60
2023-04-23T18:13:45.829Z,21.55
2023-04-23T18:16:12.836Z,21.19
2023-04-23T18:18:39.766Z,21.23
2023-04-23T18:21:06.793Z,21.26
2023-04-23T18:23:36.103Z,20.46
2023-04-23T18:26:03.107Z,20.91
2023-04-23T18:28:30.061Z,20.78
2023-04-23T18:31:02.707Z,20.63
2023-04-23T18:33:42.723Z,20.70
2023-04-23T18:36:29.838Z,20.63
2023-04-23T18:38:56.920Z,20.30
2023-04-23T18:41:23.969Z,20.43
2023-04-23T18:43:50.928Z,20.49
2023-04-23T18:46:18.083Z,20.20
2023-04-23T18:49:16.250Z,20.02
2023-04-23T18:51:51.036Z,20.06
2023-04-23T18:54:18.034Z,20.37
2023-04-23T18:56:47.954Z,20.54
2023-04-23T18:59:15.219Z,20.78
2023-04-23T19:01:43.547Z,20.53
2023-04-23T19:04:10.692Z,20.41
2023-04-23T19:06:38.293Z,20.32
2023-04-23T19:09:05.412Z,20.57
2023-04-23T19:11:35.330Z,20.24
2023-04-23T19:14:02.602Z,20.45
2023-04-23T19:16:29.823Z,20.20
2023-04-23T19:18:57.012Z,20.75
2023-04-23T19:21:23.984Z,21.05
2023-04-23T19:23:51.998Z,21.27
2023-04-23T19:26:19.209Z,21.43
2023-04-23T19:28:46.318Z,21.58
2023-04-23T19:31:13.357Z,21.72
2023-04-23T19:33:42.906Z,21.75
2023-04-23T19:36:10.430Z,21.75
2023-04-23T19:38:37.756Z,21.47
2023-04-23T19:41:04.668Z,21.29
2023-04-23T19:43:31.634Z,20.98
2023-04-23T19:45:58.784Z,20.64
2023-04-23T19:48:25.853Z,20.32
2023-04-23T19:50:52.867Z,20.18
2023-04-23T19:53:19.855Z,19.89
2023-04-23T19:55:46.754Z,20.08
2023-04-23T19:58:13.680Z,19.61
2023-04-23T20:00:41.750Z,19.51
2023-04-23T20:03:09.253Z,19.50
2023-04-23T20:05:36.352Z,19.46
2023-04-23T20:08:07.125Z,19.05
2023-04-23T20:10:34.119Z,19.16
2023-04-23T20:13:01.222Z,19.39
2023-04-23T20:15:28.628Z,19.23
2023-04-23T20:17:55.753Z,19.29
2023-04-23T20:20:22.970Z,19.85
2023-04-23T20:22:50.691Z,19.49
2023-04-23T20:25:18.119Z,19.86
2023-04-23T20:27:45.787Z,20.09
2023-04-23T20:30:14.223Z,20.43
2023-04-23T20:32:41.820Z,20.41
2023-04-23T20:35:09.736Z,20.73
2023-04-23T20:37:36.674Z,20.57
2023-04-23T20:40:03.838Z,20.18
2023-04-23T20:42:30.817Z,19.91
2023-04-23T20:44:57.962Z,19.72
2023-04-23T20:47:25.098Z,19.59
2023-04-23T20:49:52.145Z,19.55
2023-04-23T20:52:19.101Z,19.81
2023-04-23T20:54:45.970Z,19.16
2023-04-23T20:57:12.975Z,18.96
2023-04-23T20:59:40.083Z,18.89
2023-04-23T21:02:08.765Z,19.46
2023-04-23T21:04:35.973Z,19.79
2023-04-23T21:07:03.161Z,19.86
2023-04-23T21:09:30.077Z,20.19
2023-04-23T21:11:57.501Z,20.23
2023-04-23T21:14:24.409Z,20.34
2023-04-23T21:16:51.389Z,20.38
2023-04-23T21:19:18.349Z,20.41
2023-04-23T21:21:45.537Z,20.46
2023-04-23T21:24:12.466Z,20.46
2023-04-23T21:26:39.528Z,20.51
2023-04-23T21:29:06.459Z,20.62
2023-04-23T21:31:36.472Z,20.57
2023-04-23T21:34:03.431Z,20.07
2023-04-23T21:36:30.309Z,20.32
2023-04-23T21:38:57.294Z,20.25
2023-04-23T21:41:24.769Z,20.33
2023-04-23T21:43:51.759Z,20.44
2023-04-23T21:46:18.952Z,20.40
2023-04-23T21:48:49.636Z,20.28
2023-04-23T21:51:16.501Z,20.32
2023-04-23T21:53:43.392Z,20.38
2023-04-23T21:56:10.405Z,20.38
2023-04-23T21:58:37.424Z,20.30
2023-04-23T22:01:04.439Z,20.27
2023-04-23T22:03:37.805Z,20.36
2023-04-23T22:06:06.128Z,20.34
2023-04-23T22:08:33.792Z,19.88
2023-04-23T22:11:00.856Z,19.84
2023-04-23T22:13:27.772Z,19.49
2023-04-23T22:15:57.533Z,19.43
2023-04-23T22:18:24.696Z,19.24
2023-04-23T22:20:53.168Z,19.17
2023-04-23T22:23:20.128Z,19.48
2023-04-23T22:25:47.538Z,19.64
2023-04-23T22:28:14.731Z,19.66
2023-04-23T22:30:41.685Z,19.70
2023-04-23T22:33:08.661Z,19.66
2023-04-23T22:35:36.450Z,19.34
2023-04-23T22:38:03.446Z,19.53
2023-04-23T22:40:30.429Z,19.49
2023-04-23T22:42:57.336Z,19.47
2023-04-23T22:45:24.254Z,19.44
2023-04-23T22:47:51.289Z,19.10
2023-04-23T22:50:18.262Z,18.91
2023-04-23T22:52:45.156Z,18.91
2023-04-23T22:55:12.099Z,18.42
2023-04-23T22:57:39.014Z,19.02
2023-04-23T23:00:07.859Z,19.03
2023-04-23T23:02:34.944Z,19.10
2023-04-23T23:05:02.276Z,19.04
2023-04-23T23:07:29.183Z,18.68
2023-04-23T23:09:56.722Z,18.70
2023-04-23T23:12:23.645Z,18.59
2023-04-23T23:14:50.587Z,18.59
2023-04-23T23:17:17.559Z,18.81
2023-04-23T23:19:44.833Z,18.83
2023-04-23T23:22:12.218Z,18.59
2023-04-23T23:24:39.164Z,18.64
2023-04-23T23:27:06.140Z,18.58
2023-04-23T23:29:33.048Z,18.78
2023-04-23T23:32:00.149Z,18.50
2023-04-23T23:34:27.032Z,18.57
2023-04-23T23:36:53.989Z,18.67
2023-04-23T23:39:20.948Z,18.04
2023-04-23T23:41:47.931Z,17.76
2023-04-23T23:44:14.909Z,17.86
2023-04-23T23:46:42.078Z,17.81
2023-04-23T23:49:09.246Z,18.11
2023-04-23T23:51:36.287Z,18.13
2023-04-23T23:54:03.296Z,17.45
2023-04-23T23:56:30.209Z,17.95
2023-04-23T23:58:57.168Z,17.89
